sensor_id;sensor_type;location;lat;lon;timestamp;pressure;altitude;pressure_sealevel;temperature;humidity
27984;BME280;15317;50.360;8.726;2022-08-14T00:01:45;99204.59;;;20.05;72.06
27984;BME280;15317;50.360;8.726;2022-08-14T00:05:47;99192.09;;;20.03;72.48
27984;BME280;15317;50.360;8.726;2022-08-14T00:09:51;99193.66;;;19.99;72.38
27984;BME280;15317;50.360;8.726;2022-08-14T00:13:53;99185.59;;;19.97;72.84
27984;BME280;15317;50.360;8.726;2022-08-14T00:17:56;99183.06;;;19.96;72.77
27984;BME280;15317;50.360;8.726;2022-08-14T00:21:58;99185.44;;;19.92;73.16
27984;BME280;15317;50.360;8.726;2022-08-14T00:26:01;99183.97;;;19.90;73.75
27984;BME280;15317;50.360;8.726;2022-08-14T00:30:05;99175.78;;;19.83;73.73
27984;BME280;15317;50.360;8.726;2022-08-14T00:34:08;99172.38;;;19.81;73.71
27984;BME280;15317;50.360;8.726;2022-08-14T00:38:10;99168.41;;;19.77;74.12
27984;BME280;15317;50.360;8.726;2022-08-14T00:42:13;99169.47;;;19.76;74.48
27984;BME280;15317;50.360;8.726;2022-08-14T00:46:19;99162.13;;;19.70;74.89
27984;BME280;15317;50.360;8.726;2022-08-14T00:50:22;99155.53;;;19.71;74.76
27984;BME280;15317;50.360;8.726;2022-08-14T00:54:24;99150.25;;;19.69;74.85
27984;BME280;15317;50.360;8.726;2022-08-14T00:58:28;99144.34;;;19.66;75.11
27984;BME280;15317;50.360;8.726;2022-08-14T01:02:35;99137.59;;;19.62;75.47
27984;BME280;15317;50.360;8.726;2022-08-14T01:06:37;99132.09;;;19.62;75.46
27984;BME280;15317;50.360;8.726;2022-08-14T01:10:43;99133.38;;;19.59;75.78
27984;BME280;15317;50.360;8.726;2022-08-14T01:14:56;99125.81;;;19.55;76.83
27984;BME280;15317;50.360;8.726;2022-08-14T01:18:58;99122.13;;;19.61;76.75
27984;BME280;15317;50.360;8.726;2022-08-14T01:23:19;99118.25;;;19.68;76.46
27984;BME280;15317;50.360;8.726;2022-08-14T01:27:22;99114.81;;;19.73;76.60
27984;BME280;15317;50.360;8.726;2022-08-14T01:31:27;99110.63;;;19.70;76.85
27984;BME280;15317;50.360;8.726;2022-08-14T01:35:29;99109.78;;;19.70;76.92
27984;BME280;15317;50.360;8.726;2022-08-14T01:39:33;99114.03;;;19.66;77.62
27984;BME280;15317;50.360;8.726;2022-08-14T01:43:44;99105.25;;;19.57;78.23
27984;BME280;15317;50.360;8.726;2022-08-14T01:47:48;99101.47;;;19.52;78.46
27984;BME280;15317;50.360;8.726;2022-08-14T01:51:50;99099.16;;;19.49;78.39
27984;BME280;15317;50.360;8.726;2022-08-14T01:55:58;99096.44;;;19.42;78.82
27984;BME280;15317;50.360;8.726;2022-08-14T02:00:00;99093.75;;;19.36;78.40
27984;BME280;15317;50.360;8.726;2022-08-14T02:04:02;99090.00;;;19.30;78.55
27984;BME280;15317;50.360;8.726;2022-08-14T02:08:05;99087.75;;;19.20;79.06
27984;BME280;15317;50.360;8.726;2022-08-14T02:12:09;99078.31;;;19.10;78.88
27984;BME280;15317;50.360;8.726;2022-08-14T02:16:11;99068.88;;;18.99;79.19
27984;BME280;15317;50.360;8.726;2022-08-14T02:20:16;99068.06;;;18.92;78.88
27984;BME280;15317;50.360;8.726;2022-08-14T02:24:21;99055.69;;;18.83;78.78
27984;BME280;15317;50.360;8.726;2022-08-14T02:28:25;99054.88;;;18.76;79.63
27984;BME280;15317;50.360;8.726;2022-08-14T02:32:31;99040.34;;;18.69;80.20
27984;BME280;15317;50.360;8.726;2022-08-14T02:36:34;99037.16;;;18.65;79.82
27984;BME280;15317;50.360;8.726;2022-08-14T02:40:36;99032.19;;;18.56;80.60
27984;BME280;15317;50.360;8.726;2022-08-14T02:44:41;99019.88;;;18.51;80.77
27984;BME280;15317;50.360;8.726;2022-08-14T02:48:44;99018.03;;;18.45;81.17
27984;BME280;15317;50.360;8.726;2022-08-14T02:52:46;99011.06;;;18.43;81.68
27984;BME280;15317;50.360;8.726;2022-08-14T02:56:48;99003.06;;;18.41;82.36
27984;BME280;15317;50.360;8.726;2022-08-14T03:00:52;98998.44;;;18.35;83.91
27984;BME280;15317;50.360;8.726;2022-08-14T03:04:54;98990.97;;;18.42;83.74
27984;BME280;15317;50.360;8.726;2022-08-14T03:08:56;98986.09;;;18.44;85.91
27984;BME280;15317;50.360;8.726;2022-08-14T03:12:59;98992.00;;;18.48;85.04
27984;BME280;15317;50.360;8.726;2022-08-14T03:17:05;98983.50;;;18.49;84.69
27984;BME280;15317;50.360;8.726;2022-08-14T03:21:13;98976.72;;;18.52;84.84
27984;BME280;15317;50.360;8.726;2022-08-14T03:25:16;98985.44;;;18.49;86.26
27984;BME280;15317;50.360;8.726;2022-08-14T03:29:18;98981.84;;;18.48;86.10
27984;BME280;15317;50.360;8.726;2022-08-14T03:33:22;98996.03;;;18.45;86.39
27984;BME280;15317;50.360;8.726;2022-08-14T03:37:24;98992.91;;;18.42;85.86
27984;BME280;15317;50.360;8.726;2022-08-14T03:41:27;98998.88;;;18.32;86.85
27984;BME280;15317;50.360;8.726;2022-08-14T03:45:29;98984.94;;;18.27;86.12
27984;BME280;15317;50.360;8.726;2022-08-14T03:49:32;98982.00;;;18.22;86.61
27984;BME280;15317;50.360;8.726;2022-08-14T03:53:35;98974.84;;;18.21;87.02
27984;BME280;15317;50.360;8.726;2022-08-14T03:57:38;98973.59;;;18.17;87.35
27984;BME280;15317;50.360;8.726;2022-08-14T04:01:40;98974.47;;;18.11;87.60
27984;BME280;15317;50.360;8.726;2022-08-14T04:05:45;98981.50;;;18.07;87.13
27984;BME280;15317;50.360;8.726;2022-08-14T04:09:47;98985.13;;;18.01;88.20
27984;BME280;15317;50.360;8.726;2022-08-14T04:13:49;98965.88;;;18.01;88.63
27984;BME280;15317;50.360;8.726;2022-08-14T04:17:51;98986.34;;;18.05;88.40
27984;BME280;15317;50.360;8.726;2022-08-14T04:21:54;98981.25;;;18.08;88.71
27984;BME280;15317;50.360;8.726;2022-08-14T04:25:56;98981.28;;;18.02;89.26
27984;BME280;15317;50.360;8.726;2022-08-14T04:29:58;98970.66;;;18.12;89.09
27984;BME280;15317;50.360;8.726;2022-08-14T04:34:00;98977.63;;;18.14;89.26
27984;BME280;15317;50.360;8.726;2022-08-14T04:38:06;98976.53;;;18.15;89.40
27984;BME280;15317;50.360;8.726;2022-08-14T04:42:26;98981.16;;;18.28;89.38
27984;BME280;15317;50.360;8.726;2022-08-14T04:46:45;98979.66;;;18.26;89.93
27984;BME280;15317;50.360;8.726;2022-08-14T04:51:10;98971.38;;;18.32;89.91
27984;BME280;15317;50.360;8.726;2022-08-14T04:55:13;98965.84;;;18.39;89.27
27984;BME280;15317;50.360;8.726;2022-08-14T04:59:16;98957.75;;;18.44;89.45
27984;BME280;15317;50.360;8.726;2022-08-14T05:03:19;98964.88;;;18.51;89.55
27984;BME280;15317;50.360;8.726;2022-08-14T05:07:22;98979.19;;;18.67;90.34
27984;BME280;15317;50.360;8.726;2022-08-14T05:11:26;98973.72;;;18.85;89.50
27984;BME280;15317;50.360;8.726;2022-08-14T05:15:33;98971.63;;;19.05;88.45
27984;BME280;15317;50.360;8.726;2022-08-14T05:19:36;98977.31;;;19.28;87.24
27984;BME280;15317;50.360;8.726;2022-08-14T05:23:39;98977.06;;;19.55;85.53
27984;BME280;15317;50.360;8.726;2022-08-14T05:27:43;98975.03;;;19.80;84.58
27984;BME280;15317;50.360;8.726;2022-08-14T05:31:45;98973.59;;;20.07;83.08
27984;BME280;15317;50.360;8.726;2022-08-14T05:35:47;98969.44;;;21.35;78.86
27984;BME280;15317;50.360;8.726;2022-08-14T05:39:50;98969.50;;;22.93;71.61
27984;BME280;15317;50.360;8.726;2022-08-14T05:43:54;98972.88;;;24.16;65.31
27984;BME280;15317;50.360;8.726;2022-08-14T05:47:56;98972.88;;;24.16;63.32
27984;BME280;15317;50.360;8.726;2022-08-14T05:51:58;98978.34;;;24.06;63.42
27984;BME280;15317;50.360;8.726;2022-08-14T05:56:00;98971.25;;;24.15;62.56
27984;BME280;15317;50.360;8.726;2022-08-14T06:00:04;98977.38;;;24.44;61.98
27984;BME280;15317;50.360;8.726;2022-08-14T06:04:07;98993.63;;;24.84;60.19
27984;BME280;15317;50.360;8.726;2022-08-14T06:08:16;98987.22;;;25.15;58.44
27984;BME280;15317;50.360;8.726;2022-08-14T06:12:19;98983.63;;;25.56;56.81
27984;BME280;15317;50.360;8.726;2022-08-14T06:16:22;98982.31;;;25.69;56.00
27984;BME280;15317;50.360;8.726;2022-08-14T06:20:24;98978.88;;;25.57;56.92
27984;BME280;15317;50.360;8.726;2022-08-14T06:24:27;98985.69;;;25.71;56.23
27984;BME280;15317;50.360;8.726;2022-08-14T06:28:29;98983.09;;;25.60;56.95
27984;BME280;15317;50.360;8.726;2022-08-14T06:32:33;98977.19;;;25.09;58.92
27984;BME280;15317;50.360;8.726;2022-08-14T06:36:35;98973.94;;;25.22;58.22
27984;BME280;15317;50.360;8.726;2022-08-14T06:40:38;98973.91;;;25.17;58.35
27984;BME280;15317;50.360;8.726;2022-08-14T06:44:40;98974.66;;;25.07;58.44
27984;BME280;15317;50.360;8.726;2022-08-14T06:48:44;98961.41;;;25.19;59.38
27984;BME280;15317;50.360;8.726;2022-08-14T06:52:46;98965.00;;;25.15;58.27
27984;BME280;15317;50.360;8.726;2022-08-14T06:56:48;98978.41;;;25.23;57.81
27984;BME280;15317;50.360;8.726;2022-08-14T07:00:50;98964.81;;;24.90;58.92
27984;BME280;15317;50.360;8.726;2022-08-14T07:05:12;98961.66;;;24.49;61.05
27984;BME280;15317;50.360;8.726;2022-08-14T07:09:33;98966.63;;;24.79;60.57
27984;BME280;15317;50.360;8.726;2022-08-14T07:13:35;98958.38;;;25.21;59.15
27984;BME280;15317;50.360;8.726;2022-08-14T07:17:44;98950.72;;;25.43;58.60
27984;BME280;15317;50.360;8.726;2022-08-14T07:21:47;98955.72;;;25.46;58.85
27984;BME280;15317;50.360;8.726;2022-08-14T07:25:50;98937.41;;;25.50;59.23
27984;BME280;15317;50.360;8.726;2022-08-14T07:29:52;98935.59;;;25.24;59.26
27984;BME280;15317;50.360;8.726;2022-08-14T07:33:54;98933.94;;;25.23;60.09
27984;BME280;15317;50.360;8.726;2022-08-14T07:37:58;98929.28;;;25.39;59.93
27984;BME280;15317;50.360;8.726;2022-08-14T07:42:00;98913.91;;;25.21;59.65
27984;BME280;15317;50.360;8.726;2022-08-14T07:46:02;98906.25;;;25.43;59.19
27984;BME280;15317;50.360;8.726;2022-08-14T07:50:11;98904.25;;;25.39;59.41
27984;BME280;15317;50.360;8.726;2022-08-14T07:54:15;98887.38;;;25.55;59.09
27984;BME280;15317;50.360;8.726;2022-08-14T07:58:17;98890.94;;;25.41;58.37
27984;BME280;15317;50.360;8.726;2022-08-14T08:02:19;98885.13;;;25.47;59.09
27984;BME280;15317;50.360;8.726;2022-08-14T08:06:21;98882.50;;;25.83;58.02
27984;BME280;15317;50.360;8.726;2022-08-14T08:10:25;98889.50;;;25.90;57.93
27984;BME280;15317;50.360;8.726;2022-08-14T08:14:34;98905.22;;;26.47;56.07
27984;BME280;15317;50.360;8.726;2022-08-14T08:18:37;98899.66;;;26.67;55.37
27984;BME280;15317;50.360;8.726;2022-08-14T08:22:39;98909.09;;;26.61;55.37
27984;BME280;15317;50.360;8.726;2022-08-14T08:26:44;98912.19;;;26.85;54.51
27984;BME280;15317;50.360;8.726;2022-08-14T08:30:48;98904.94;;;26.64;54.50
27984;BME280;15317;50.360;8.726;2022-08-14T08:34:51;98900.50;;;26.68;54.97
27984;BME280;15317;50.360;8.726;2022-08-14T08:38:58;98905.50;;;27.06;53.85
27984;BME280;15317;50.360;8.726;2022-08-14T08:43:03;98908.28;;;27.06;53.86
27984;BME280;15317;50.360;8.726;2022-08-14T08:47:06;98898.75;;;27.28;53.25
27984;BME280;15317;50.360;8.726;2022-08-14T08:51:09;98900.16;;;27.25;52.55
27984;BME280;15317;50.360;8.726;2022-08-14T08:55:27;98902.63;;;27.42;53.06
27984;BME280;15317;50.360;8.726;2022-08-14T08:59:31;98904.28;;;27.38;51.74
27984;BME280;15317;50.360;8.726;2022-08-14T09:03:33;98887.81;;;27.62;51.03
27984;BME280;15317;50.360;8.726;2022-08-14T09:07:36;98883.72;;;27.93;50.04
27984;BME280;15317;50.360;8.726;2022-08-14T09:11:38;98885.31;;;28.14;49.34
27984;BME280;15317;50.360;8.726;2022-08-14T09:15:43;98876.19;;;27.94;48.99
27984;BME280;15317;50.360;8.726;2022-08-14T09:19:47;98881.44;;;28.49;47.82
27984;BME280;15317;50.360;8.726;2022-08-14T09:23:49;98878.66;;;28.49;47.06
27984;BME280;15317;50.360;8.726;2022-08-14T09:27:51;98869.59;;;28.62;47.11
27984;BME280;15317;50.360;8.726;2022-08-14T09:31:57;98874.84;;;28.35;46.44
27984;BME280;15317;50.360;8.726;2022-08-14T09:36:19;98871.25;;;28.63;45.89
27984;BME280;15317;50.360;8.726;2022-08-14T09:40:37;98864.34;;;28.56;46.29
27984;BME280;15317;50.360;8.726;2022-08-14T09:44:46;98858.47;;;28.91;45.95
27984;BME280;15317;50.360;8.726;2022-08-14T09:48:58;98856.03;;;29.08;45.45
27984;BME280;15317;50.360;8.726;2022-08-14T09:53:03;98863.44;;;28.94;45.55
27984;BME280;15317;50.360;8.726;2022-08-14T09:57:06;98858.03;;;28.74;45.63
27984;BME280;15317;50.360;8.726;2022-08-14T10:01:12;98847.56;;;28.90;45.59
27984;BME280;15317;50.360;8.726;2022-08-14T10:05:26;98841.88;;;29.00;45.98
27984;BME280;15317;50.360;8.726;2022-08-14T10:09:29;98837.13;;;29.24;44.73
27984;BME280;15317;50.360;8.726;2022-08-14T10:13:31;98838.53;;;28.98;43.93
27984;BME280;15317;50.360;8.726;2022-08-14T10:17:33;98825.44;;;28.93;44.71
27984;BME280;15317;50.360;8.726;2022-08-14T10:21:38;98834.16;;;28.58;45.24
27984;BME280;15317;50.360;8.726;2022-08-14T10:25:42;98817.78;;;29.04;44.24
27984;BME280;15317;50.360;8.726;2022-08-14T10:29:47;98809.94;;;29.06;43.09
27984;BME280;15317;50.360;8.726;2022-08-14T10:34:02;98789.34;;;29.44;43.38
27984;BME280;15317;50.360;8.726;2022-08-14T10:38:05;98782.63;;;29.45;41.37
27984;BME280;15317;50.360;8.726;2022-08-14T10:42:09;98782.34;;;29.66;41.35
27984;BME280;15317;50.360;8.726;2022-08-14T10:46:14;98782.34;;;29.84;41.49
27984;BME280;15317;50.360;8.726;2022-08-14T10:50:16;98780.09;;;30.05;40.88
27984;BME280;15317;50.360;8.726;2022-08-14T10:54:33;98788.03;;;30.17;39.97
27984;BME280;15317;50.360;8.726;2022-08-14T10:58:35;98777.84;;;30.40;38.74
27984;BME280;15317;50.360;8.726;2022-08-14T11:02:37;98787.38;;;30.39;38.41
27984;BME280;15317;50.360;8.726;2022-08-14T11:06:50;98780.94;;;30.57;39.87
27984;BME280;15317;50.360;8.726;2022-08-14T11:10:55;98780.13;;;30.56;39.15
27984;BME280;15317;50.360;8.726;2022-08-14T11:14:58;98761.75;;;30.45;39.00
27984;BME280;15317;50.360;8.726;2022-08-14T11:19:02;98763.22;;;30.43;38.13
27984;BME280;15317;50.360;8.726;2022-08-14T11:23:07;98773.03;;;30.59;37.81
27984;BME280;15317;50.360;8.726;2022-08-14T11:27:13;98767.06;;;30.79;37.92
27984;BME280;15317;50.360;8.726;2022-08-14T11:31:19;98770.56;;;30.71;37.40
27984;BME280;15317;50.360;8.726;2022-08-14T11:35:22;98758.03;;;30.17;38.18
27984;BME280;15317;50.360;8.726;2022-08-14T11:39:26;98750.22;;;29.82;38.54
27984;BME280;15317;50.360;8.726;2022-08-14T11:43:30;98747.78;;;30.13;38.14
27984;BME280;15317;50.360;8.726;2022-08-14T11:47:32;98733.59;;;30.37;37.02
27984;BME280;15317;50.360;8.726;2022-08-14T11:51:34;98741.28;;;30.50;36.87
27984;BME280;15317;50.360;8.726;2022-08-14T11:55:37;98730.66;;;30.47;36.88
27984;BME280;15317;50.360;8.726;2022-08-14T11:59:41;98717.84;;;30.73;37.56
27984;BME280;15317;50.360;8.726;2022-08-14T12:03:44;98713.91;;;30.88;36.73
27984;BME280;15317;50.360;8.726;2022-08-14T12:07:47;98707.25;;;30.97;36.87
27984;BME280;15317;50.360;8.726;2022-08-14T12:11:50;98697.06;;;31.01;36.23
27984;BME280;15317;50.360;8.726;2022-08-14T12:15:59;98694.47;;;31.19;35.24
27984;BME280;15317;50.360;8.726;2022-08-14T12:20:04;98689.28;;;30.98;35.77
27984;BME280;15317;50.360;8.726;2022-08-14T12:24:08;98681.41;;;31.14;35.20
27984;BME280;15317;50.360;8.726;2022-08-14T12:28:11;98674.63;;;31.29;34.89
27984;BME280;15317;50.360;8.726;2022-08-14T12:32:14;98658.53;;;31.21;35.02
27984;BME280;15317;50.360;8.726;2022-08-14T12:36:18;98665.34;;;31.42;34.54
27984;BME280;15317;50.360;8.726;2022-08-14T12:40:21;98656.78;;;31.25;35.19
27984;BME280;15317;50.360;8.726;2022-08-14T12:44:28;98658.50;;;31.34;34.95
27984;BME280;15317;50.360;8.726;2022-08-14T12:48:43;98645.59;;;31.33;33.96
27984;BME280;15317;50.360;8.726;2022-08-14T12:52:49;98640.44;;;31.27;33.42
27984;BME280;15317;50.360;8.726;2022-08-14T12:57:02;98638.03;;;31.34;33.97
27984;BME280;15317;50.360;8.726;2022-08-14T13:01:04;98632.00;;;31.27;33.00
27984;BME280;15317;50.360;8.726;2022-08-14T13:05:11;98622.06;;;31.21;33.51
27984;BME280;15317;50.360;8.726;2022-08-14T13:09:14;98621.94;;;31.26;33.18
27984;BME280;15317;50.360;8.726;2022-08-14T13:13:18;98605.94;;;31.62;32.53
27984;BME280;15317;50.360;8.726;2022-08-14T13:17:20;98603.84;;;31.54;32.42
27984;BME280;15317;50.360;8.726;2022-08-14T13:21:25;98600.53;;;31.66;32.63
27984;BME280;15317;50.360;8.726;2022-08-14T13:25:28;98598.41;;;31.71;31.94
27984;BME280;15317;50.360;8.726;2022-08-14T13:29:34;98594.81;;;31.57;30.98
27984;BME280;15317;50.360;8.726;2022-08-14T13:33:40;98577.50;;;31.42;31.71
27984;BME280;15317;50.360;8.726;2022-08-14T13:37:44;98570.06;;;31.59;30.50
27984;BME280;15317;50.360;8.726;2022-08-14T13:41:47;98569.75;;;31.61;30.78
27984;BME280;15317;50.360;8.726;2022-08-14T13:45:50;98569.81;;;31.69;30.86
27984;BME280;15317;50.360;8.726;2022-08-14T13:49:52;98557.81;;;31.77;31.31
27984;BME280;15317;50.360;8.726;2022-08-14T13:53:56;98563.16;;;31.88;30.95
27984;BME280;15317;50.360;8.726;2022-08-14T13:58:00;98554.88;;;31.83;31.71
27984;BME280;15317;50.360;8.726;2022-08-14T14:02:05;98537.56;;;31.89;30.84
27984;BME280;15317;50.360;8.726;2022-08-14T14:06:08;98524.91;;;32.00;30.32
27984;BME280;15317;50.360;8.726;2022-08-14T14:10:12;98524.09;;;32.08;30.37
27984;BME280;15317;50.360;8.726;2022-08-14T14:14:14;98529.28;;;32.15;30.35
27984;BME280;15317;50.360;8.726;2022-08-14T14:18:18;98517.53;;;32.13;29.98
27984;BME280;15317;50.360;8.726;2022-08-14T14:22:21;98505.78;;;32.11;29.62
27984;BME280;15317;50.360;8.726;2022-08-14T14:26:25;98519.25;;;31.92;29.97
27984;BME280;15317;50.360;8.726;2022-08-14T14:30:28;98509.53;;;31.98;29.60
27984;BME280;15317;50.360;8.726;2022-08-14T14:34:31;98513.06;;;32.12;29.43
27984;BME280;15317;50.360;8.726;2022-08-14T14:38:34;98512.41;;;32.15;29.97
27984;BME280;15317;50.360;8.726;2022-08-14T14:42:45;98497.22;;;32.16;30.12
27984;BME280;15317;50.360;8.726;2022-08-14T14:46:48;98504.88;;;32.24;29.96
27984;BME280;15317;50.360;8.726;2022-08-14T14:50:50;98496.63;;;32.36;29.99
27984;BME280;15317;50.360;8.726;2022-08-14T14:54:54;98485.75;;;32.52;30.37
27984;BME280;15317;50.360;8.726;2022-08-14T14:58:58;98484.75;;;32.39;30.46
27984;BME280;15317;50.360;8.726;2022-08-14T15:03:01;98479.97;;;32.57;30.65
27984;BME280;15317;50.360;8.726;2022-08-14T15:07:03;98479.00;;;32.62;29.71
27984;BME280;15317;50.360;8.726;2022-08-14T15:11:06;98476.53;;;32.69;30.49
27984;BME280;15317;50.360;8.726;2022-08-14T15:15:10;98464.13;;;32.61;30.25
27984;BME280;15317;50.360;8.726;2022-08-14T15:19:14;98464.63;;;32.54;29.62
27984;BME280;15317;50.360;8.726;2022-08-14T15:23:16;98463.25;;;32.43;29.95
27984;BME280;15317;50.360;8.726;2022-08-14T15:27:18;98459.63;;;32.51;30.27
27984;BME280;15317;50.360;8.726;2022-08-14T15:31:21;98463.38;;;32.30;28.35
27984;BME280;15317;50.360;8.726;2022-08-14T15:35:24;98461.22;;;32.18;29.41
27984;BME280;15317;50.360;8.726;2022-08-14T15:39:27;98460.31;;;32.09;30.15
27984;BME280;15317;50.360;8.726;2022-08-14T15:43:30;98460.44;;;31.87;30.41
27984;BME280;15317;50.360;8.726;2022-08-14T15:47:34;98451.50;;;31.85;30.94
27984;BME280;15317;50.360;8.726;2022-08-14T15:51:37;98445.53;;;31.55;29.71
27984;BME280;15317;50.360;8.726;2022-08-14T15:55:39;98446.19;;;31.52;29.98
27984;BME280;15317;50.360;8.726;2022-08-14T15:59:41;98439.69;;;31.43;30.80
27984;BME280;15317;50.360;8.726;2022-08-14T16:04:03;98438.91;;;31.51;30.24
27984;BME280;15317;50.360;8.726;2022-08-14T16:08:06;98437.06;;;31.47;29.89
27984;BME280;15317;50.360;8.726;2022-08-14T16:12:08;98432.16;;;31.52;30.44
27984;BME280;15317;50.360;8.726;2022-08-14T16:16:13;98429.53;;;31.56;30.31
27984;BME280;15317;50.360;8.726;2022-08-14T16:20:18;98433.09;;;31.70;31.25
27984;BME280;15317;50.360;8.726;2022-08-14T16:24:20;98426.41;;;31.57;30.90
27984;BME280;15317;50.360;8.726;2022-08-14T16:28:22;98423.75;;;31.52;31.25
27984;BME280;15317;50.360;8.726;2022-08-14T16:32:24;98419.44;;;31.55;31.80
27984;BME280;15317;50.360;8.726;2022-08-14T16:36:28;98415.59;;;31.42;30.99
27984;BME280;15317;50.360;8.726;2022-08-14T16:40:30;98408.31;;;31.41;32.02
27984;BME280;15317;50.360;8.726;2022-08-14T16:44:33;98404.97;;;31.39;31.81
27984;BME280;15317;50.360;8.726;2022-08-14T16:48:38;98396.34;;;31.27;31.62
27984;BME280;15317;50.360;8.726;2022-08-14T16:52:42;98394.47;;;31.14;32.41
27984;BME280;15317;50.360;8.726;2022-08-14T16:56:44;98396.38;;;31.05;32.26
27984;BME280;15317;50.360;8.726;2022-08-14T17:00:46;98387.81;;;30.87;32.59
27984;BME280;15317;50.360;8.726;2022-08-14T17:04:48;98382.28;;;30.74;34.15
27984;BME280;15317;50.360;8.726;2022-08-14T17:08:53;98389.22;;;30.54;34.61
27984;BME280;15317;50.360;8.726;2022-08-14T17:13:15;98386.97;;;30.29;34.76
27984;BME280;15317;50.360;8.726;2022-08-14T17:17:18;98375.59;;;30.11;34.73
27984;BME280;15317;50.360;8.726;2022-08-14T17:21:22;98373.66;;;29.98;35.01
27984;BME280;15317;50.360;8.726;2022-08-14T17:25:28;98376.13;;;29.86;35.63
27984;BME280;15317;50.360;8.726;2022-08-14T17:29:32;98370.44;;;29.64;36.85
27984;BME280;15317;50.360;8.726;2022-08-14T17:33:35;98364.22;;;29.39;37.62
27984;BME280;15317;50.360;8.726;2022-08-14T17:37:39;98357.94;;;29.15;38.59
27984;BME280;15317;50.360;8.726;2022-08-14T17:41:45;98355.50;;;28.95;39.18
27984;BME280;15317;50.360;8.726;2022-08-14T17:45:48;98361.34;;;28.80;39.02
27984;BME280;15317;50.360;8.726;2022-08-14T17:49:50;98370.75;;;28.51;39.61
27984;BME280;15317;50.360;8.726;2022-08-14T17:53:54;98366.72;;;28.25;40.44
27984;BME280;15317;50.360;8.726;2022-08-14T17:57:58;98376.97;;;28.06;41.29
27984;BME280;15317;50.360;8.726;2022-08-14T18:02:02;98366.41;;;27.84;41.47
27984;BME280;15317;50.360;8.726;2022-08-14T18:06:04;98362.16;;;27.68;41.63
27984;BME280;15317;50.360;8.726;2022-08-14T18:10:07;98359.28;;;27.49;42.02
27984;BME280;15317;50.360;8.726;2022-08-14T18:14:11;98358.91;;;27.32;42.07
27984;BME280;15317;50.360;8.726;2022-08-14T18:18:15;98352.16;;;27.14;42.68
27984;BME280;15317;50.360;8.726;2022-08-14T18:22:17;98358.72;;;26.99;42.90
27984;BME280;15317;50.360;8.726;2022-08-14T18:26:24;98357.69;;;26.85;42.62
27984;BME280;15317;50.360;8.726;2022-08-14T18:30:29;98357.84;;;26.70;42.91
27984;BME280;15317;50.360;8.726;2022-08-14T18:34:35;98356.84;;;26.56;43.37
27984;BME280;15317;50.360;8.726;2022-08-14T18:38:37;98363.66;;;26.40;43.66
27984;BME280;15317;50.360;8.726;2022-08-14T18:42:42;98359.28;;;26.23;43.95
27984;BME280;15317;50.360;8.726;2022-08-14T18:47:19;98356.06;;;26.06;44.38
27984;BME280;15317;50.360;8.726;2022-08-14T18:51:23;98362.56;;;25.91;44.79
27984;BME280;15317;50.360;8.726;2022-08-14T18:55:49;98365.69;;;25.75;45.12
27984;BME280;15317;50.360;8.726;2022-08-14T18:59:51;98363.53;;;25.62;45.51
27984;BME280;15317;50.360;8.726;2022-08-14T19:03:58;98366.31;;;25.46;45.93
27984;BME280;15317;50.360;8.726;2022-08-14T19:08:19;98365.25;;;25.32;46.20
27984;BME280;15317;50.360;8.726;2022-08-14T19:12:53;98350.59;;;25.16;46.46
27984;BME280;15317;50.360;8.726;2022-08-14T19:16:56;98360.59;;;25.07;46.71
27984;BME280;15317;50.360;8.726;2022-08-14T19:21:01;98359.50;;;24.98;46.97
27984;BME280;15317;50.360;8.726;2022-08-14T19:25:07;98361.44;;;24.88;47.21
27984;BME280;15317;50.360;8.726;2022-08-14T19:29:26;98364.22;;;24.77;47.49
27984;BME280;15317;50.360;8.726;2022-08-14T19:33:47;98360.06;;;24.65;47.63
27984;BME280;15317;50.360;8.726;2022-08-14T19:37:52;98366.47;;;24.55;47.91
27984;BME280;15317;50.360;8.726;2022-08-14T19:41:55;98374.25;;;24.48;48.15
27984;BME280;15317;50.360;8.726;2022-08-14T19:45:57;98373.41;;;24.53;47.98
27984;BME280;15317;50.360;8.726;2022-08-14T19:49:59;98377.56;;;24.50;47.87
27984;BME280;15317;50.360;8.726;2022-08-14T19:54:04;98380.59;;;24.44;48.51
27984;BME280;15317;50.360;8.726;2022-08-14T19:58:07;98380.34;;;24.40;48.83
27984;BME280;15317;50.360;8.726;2022-08-14T20:02:11;98380.03;;;24.36;49.09
27984;BME280;15317;50.360;8.726;2022-08-14T20:06:14;98381.44;;;24.34;49.65
27984;BME280;15317;50.360;8.726;2022-08-14T20:10:28;98383.66;;;24.32;49.68
27984;BME280;15317;50.360;8.726;2022-08-14T20:14:34;98381.16;;;24.25;50.21
27984;BME280;15317;50.360;8.726;2022-08-14T20:18:37;98383.66;;;24.27;51.20
27984;BME280;15317;50.360;8.726;2022-08-14T20:22:41;98383.09;;;24.30;51.23
27984;BME280;15317;50.360;8.726;2022-08-14T20:26:48;98379.75;;;24.23;50.76
27984;BME280;15317;50.360;8.726;2022-08-14T20:31:11;98373.06;;;24.19;51.08
27984;BME280;15317;50.360;8.726;2022-08-14T20:35:28;98377.50;;;24.15;50.78
27984;BME280;15317;50.360;8.726;2022-08-14T20:39:30;98369.44;;;24.08;51.25
27984;BME280;15317;50.360;8.726;2022-08-14T20:43:38;98367.47;;;23.98;51.36
27984;BME280;15317;50.360;8.726;2022-08-14T20:47:58;98375.22;;;23.86;51.67
27984;BME280;15317;50.360;8.726;2022-08-14T20:52:06;98364.06;;;23.76;52.01
27984;BME280;15317;50.360;8.726;2022-08-14T20:56:19;98370.19;;;23.73;51.87
27984;BME280;15317;50.360;8.726;2022-08-14T21:04:54;98370.75;;;23.80;51.66
27984;BME280;15317;50.360;8.726;2022-08-14T21:08:59;98374.06;;;23.82;51.75
27984;BME280;15317;50.360;8.726;2022-08-14T21:13:02;98371.88;;;23.84;51.80
27984;BME280;15317;50.360;8.726;2022-08-14T21:17:05;98381.84;;;23.85;51.40
27984;BME280;15317;50.360;8.726;2022-08-14T21:21:10;98379.09;;;23.85;51.03
27984;BME280;15317;50.360;8.726;2022-08-14T21:25:13;98375.22;;;23.86;51.46
27984;BME280;15317;50.360;8.726;2022-08-14T21:29:16;98374.09;;;23.87;51.19
27984;BME280;15317;50.360;8.726;2022-08-14T21:33:18;98374.06;;;23.82;51.06
27984;BME280;15317;50.360;8.726;2022-08-14T21:37:22;98366.56;;;23.73;51.21
27984;BME280;15317;50.360;8.726;2022-08-14T21:41:24;98373.75;;;23.69;51.37